sensor_id;sensor_type;location;lat;lon;timestamp;pressure;altitude;pressure_sealevel;temperature;humidity
3524;BME280;1776;53.330;11.498;2023-02-04T00:00:47;21554.59;;;-147.39;74.87
3524;BME280;1776;53.330;11.498;2023-02-04T00:03:13;21532.22;;;-147.39;75.24
3524;BME280;1776;53.330;11.498;2023-02-04T00:05:39;21526.13;;;-147.39;74.88
3524;BME280;1776;53.330;11.498;2023-02-04T00:08:04;21536.28;;;-147.39;75.17
3524;BME280;1776;53.330;11.498;2023-02-04T00:10:30;21564.75;;;-147.39;74.64
3524;BME280;1776;53.330;11.498;2023-02-04T00:12:55;21873.63;;;-147.39;74.89
3524;BME280;1776;53.330;11.498;2023-02-04T00:15:20;21552.56;;;-147.39;74.95
3524;BME280;1776;53.330;11.498;2023-02-04T00:17:46;21668.38;;;-147.39;74.45
3524;BME280;1776;53.330;11.498;2023-02-04T00:20:11;21536.28;;;-147.39;74.34
3524;BME280;1776;53.330;11.498;2023-02-04T00:22:36;21613.50;;;-147.39;74.10
3524;BME280;1776;53.330;11.498;2023-02-04T00:25:02;21597.25;;;-147.39;73.84
3524;BME280;1776;53.330;11.498;2023-02-04T00:27:27;21578.97;;;-147.39;74.31
3524;BME280;1776;53.330;11.498;2023-02-04T00:29:53;21562.72;;;-147.39;73.92
3524;BME280;1776;53.330;11.498;2023-02-04T00:32:18;21556.63;;;-147.39;74.42
3524;BME280;1776;53.330;11.498;2023-02-04T00:34:43;21576.94;;;-147.39;74.49
3524;BME280;1776;53.330;11.498;2023-02-04T00:37:08;21700.88;;;-147.39;74.41
3524;BME280;1776;53.330;11.498;2023-02-04T00:39:34;21540.38;;;-147.39;74.51
3524;BME280;1776;53.330;11.498;2023-02-04T00:41:59;21538.31;;;-147.39;74.97
3524;BME280;1776;53.330;11.498;2023-02-04T00:44:24;21554.59;;;-147.39;74.66
3524;BME280;1776;53.330;11.498;2023-02-04T00:46:49;21668.38;;;-147.39;74.65
3524;BME280;1776;53.330;11.498;2023-02-04T00:49:15;21611.47;;;-147.39;74.49
3524;BME280;1776;53.330;11.498;2023-02-04T00:51:41;21603.34;;;-147.39;74.32
3524;BME280;1776;53.330;11.498;2023-02-04T00:54:10;21591.16;;;-147.39;74.19
3524;BME280;1776;53.330;11.498;2023-02-04T00:56:36;21585.06;;;-147.39;73.98
3524;BME280;1776;53.330;11.498;2023-02-04T00:59:01;21668.38;;;-147.39;74.00
3524;BME280;1776;53.330;11.498;2023-02-04T01:01:27;21605.38;;;-147.39;74.15
3524;BME280;1776;53.330;11.498;2023-02-04T01:03:52;21603.34;;;-147.39;73.75
3524;BME280;1776;53.330;11.498;2023-02-04T01:06:17;21639.94;;;-147.39;73.88
3524;BME280;1776;53.330;11.498;2023-02-04T01:08:43;21650.09;;;-147.39;73.53
3524;BME280;1776;53.330;11.498;2023-02-04T01:11:08;21623.66;;;-147.39;73.83
3524;BME280;1776;53.330;11.498;2023-02-04T01:13:33;21613.50;;;-147.39;73.80
3524;BME280;1776;53.330;11.498;2023-02-04T01:15:59;21745.59;;;-147.39;73.59
3524;BME280;1776;53.330;11.498;2023-02-04T01:18:24;21597.25;;;-147.39;73.66
3524;BME280;1776;53.330;11.498;2023-02-04T01:20:49;21633.84;;;-147.39;73.67
3524;BME280;1776;53.330;11.498;2023-02-04T01:23:14;21611.47;;;-147.39;73.59
3524;BME280;1776;53.330;11.498;2023-02-04T01:25:40;21079.13;;;-147.39;73.71
3524;BME280;1776;53.330;11.498;2023-02-04T01:28:05;21644.00;;;-147.39;73.84
3524;BME280;1776;53.330;11.498;2023-02-04T01:30:30;21613.50;;;-147.39;73.69
3524;BME280;1776;53.330;11.498;2023-02-04T01:32:56;21706.97;;;-147.39;73.90
3524;BME280;1776;53.330;11.498;2023-02-04T01:35:21;21656.19;;;-147.39;73.61
3524;BME280;1776;53.330;11.498;2023-02-04T01:37:46;21623.66;;;-147.39;73.97
3524;BME280;1776;53.330;11.498;2023-02-04T01:40:12;21605.38;;;-147.39;73.88
3524;BME280;1776;53.330;11.498;2023-02-04T01:42:37;21578.97;;;-147.39;73.79
3524;BME280;1776;53.330;11.498;2023-02-04T01:45:03;21611.47;;;-147.39;73.82
3524;BME280;1776;53.330;11.498;2023-02-04T01:47:30;21631.81;;;-147.39;73.69
3524;BME280;1776;53.330;11.498;2023-02-04T01:49:56;21662.28;;;-147.39;73.53
3524;BME280;1776;53.330;11.498;2023-02-04T01:52:22;21625.69;;;-147.39;73.88
3524;BME280;1776;53.330;11.498;2023-02-04T01:54:48;21637.91;;;-147.39;74.12
3524;BME280;1776;53.330;11.498;2023-02-04T01:57:15;21625.69;;;-147.39;73.67
3524;BME280;1776;53.330;11.498;2023-02-04T01:59:45;21654.16;;;-147.39;73.90
3524;BME280;1776;53.330;11.498;2023-02-04T02:02:43;21595.22;;;-147.39;73.71
3524;BME280;1776;53.330;11.498;2023-02-04T02:05:11;21617.56;;;-147.39;73.41
3524;BME280;1776;53.330;11.498;2023-02-04T02:07:38;21623.66;;;-147.39;73.51
3524;BME280;1776;53.330;11.498;2023-02-04T02:10:06;21639.94;;;-147.39;73.42
3524;BME280;1776;53.330;11.498;2023-02-04T02:12:32;21648.06;;;-147.39;73.27
3524;BME280;1776;53.330;11.498;2023-02-04T02:14:58;21672.44;;;-147.39;73.44
3524;BME280;1776;53.330;11.498;2023-02-04T02:17:24;21658.22;;;-147.39;73.44
3524;BME280;1776;53.330;11.498;2023-02-04T02:19:49;21648.06;;;-147.39;73.31
3524;BME280;1776;53.330;11.498;2023-02-04T02:22:28;21654.16;;;-147.39;73.32
3524;BME280;1776;53.330;11.498;2023-02-04T02:24:56;21674.47;;;-147.39;73.45
3524;BME280;1776;53.330;11.498;2023-02-04T02:27:21;21662.28;;;-147.39;73.08
3524;BME280;1776;53.330;11.498;2023-02-04T02:29:46;21664.31;;;-147.39;73.23
3524;BME280;1776;53.330;11.498;2023-02-04T02:32:13;21664.31;;;-147.39;73.24
3524;BME280;1776;53.330;11.498;2023-02-04T02:34:38;21676.50;;;-147.39;73.21
3524;BME280;1776;53.330;11.498;2023-02-04T02:37:06;21690.72;;;-147.39;73.06
3524;BME280;1776;53.330;11.498;2023-02-04T02:39:33;21666.34;;;-147.39;73.21
3524;BME280;1776;53.330;11.498;2023-02-04T02:41:59;21635.88;;;-147.39;73.25
3524;BME280;1776;53.330;11.498;2023-02-04T02:44:25;21670.41;;;-147.39;73.28
3524;BME280;1776;53.330;11.498;2023-02-04T02:46:52;21686.66;;;-147.39;73.07
3524;BME280;1776;53.330;11.498;2023-02-04T02:49:18;21692.75;;;-147.39;72.56
3524;BME280;1776;53.330;11.498;2023-02-04T02:51:45;21694.78;;;-147.39;72.60
3524;BME280;1776;53.330;11.498;2023-02-04T02:54:20;21731.38;;;-147.39;72.41
3524;BME280;1776;53.330;11.498;2023-02-04T02:56:46;21745.59;;;-147.39;72.16
3524;BME280;1776;53.330;11.498;2023-02-04T02:59:16;21731.38;;;-147.39;72.43
3524;BME280;1776;53.330;11.498;2023-02-04T03:01:42;21818.75;;;-147.39;72.10
3524;BME280;1776;53.330;11.498;2023-02-04T03:04:08;21818.75;;;-147.39;71.65
3524;BME280;1776;53.330;11.498;2023-02-04T03:06:34;21804.53;;;-147.39;71.69
3524;BME280;1776;53.330;11.498;2023-02-04T03:09:00;21780.13;;;-147.39;71.64
3524;BME280;1776;53.330;11.498;2023-02-04T03:11:25;21780.13;;;-147.39;71.79
3524;BME280;1776;53.330;11.498;2023-02-04T03:13:53;21798.44;;;-147.39;71.08
3524;BME280;1776;53.330;11.498;2023-02-04T03:16:19;21804.53;;;-147.39;71.06
3524;BME280;1776;53.330;11.498;2023-02-04T03:18:44;21837.03;;;-147.39;71.03
3524;BME280;1776;53.330;11.498;2023-02-04T03:21:10;21841.09;;;-147.39;70.64
3524;BME280;1776;53.330;11.498;2023-02-04T03:23:35;21867.50;;;-147.39;70.46
3524;BME280;1776;53.330;11.498;2023-02-04T03:26:02;21818.75;;;-147.39;70.81
3524;BME280;1776;53.330;11.498;2023-02-04T03:28:28;21879.72;;;-147.39;70.76
3524;BME280;1776;53.330;11.498;2023-02-04T03:30:54;21822.81;;;-147.39;70.96
3524;BME280;1776;53.330;11.498;2023-02-04T03:33:24;21832.97;;;-147.39;70.83
3524;BME280;1776;53.330;11.498;2023-02-04T03:35:51;21898.00;;;-147.39;70.70
3524;BME280;1776;53.330;11.498;2023-02-04T03:38:16;21810.63;;;-147.39;70.82
3524;BME280;1776;53.330;11.498;2023-02-04T03:40:42;21855.31;;;-147.39;70.62
3524;BME280;1776;53.330;11.498;2023-02-04T03:43:08;21841.09;;;-147.39;70.66
3524;BME280;1776;53.330;11.498;2023-02-04T03:45:33;21877.69;;;-147.39;70.57
3524;BME280;1776;53.330;11.498;2023-02-04T03:47:59;21853.28;;;-147.39;70.66
3524;BME280;1776;53.330;11.498;2023-02-04T03:50:24;21841.09;;;-147.39;70.79
3524;BME280;1776;53.330;11.498;2023-02-04T03:52:49;21832.97;;;-147.39;70.75
3524;BME280;1776;53.330;11.498;2023-02-04T03:55:16;21885.81;;;-147.39;70.73
3524;BME280;1776;53.330;11.498;2023-02-04T03:57:41;21855.31;;;-147.39;70.24
3524;BME280;1776;53.330;11.498;2023-02-04T04:00:08;21873.63;;;-147.39;70.03
3524;BME280;1776;53.330;11.498;2023-02-04T04:02:33;21930.50;;;-147.39;69.86
3524;BME280;1776;53.330;11.498;2023-02-04T04:04:58;21898.00;;;-147.39;69.89
3524;BME280;1776;53.330;11.498;2023-02-04T04:07:23;21879.72;;;-147.39;69.77
3524;BME280;1776;53.330;11.498;2023-02-04T04:09:49;21885.81;;;-147.39;69.73
3524;BME280;1776;53.330;11.498;2023-02-04T04:12:14;21875.66;;;-147.39;70.00
3524;BME280;1776;53.330;11.498;2023-02-04T04:14:39;21871.59;;;-147.39;70.24
3524;BME280;1776;53.330;11.498;2023-02-04T04:17:04;21920.34;;;-147.39;70.23
3524;BME280;1776;53.330;11.498;2023-02-04T04:19:30;21869.53;;;-147.39;70.44
3524;BME280;1776;53.330;11.498;2023-02-04T04:21:57;21969.13;;;-147.39;70.09
3524;BME280;1776;53.330;11.498;2023-02-04T04:24:22;21889.88;;;-147.39;70.18
3524;BME280;1776;53.330;11.498;2023-02-04T04:26:47;21914.25;;;-147.39;70.00
3524;BME280;1776;53.330;11.498;2023-02-04T04:29:12;21885.81;;;-147.39;70.00
3524;BME280;1776;53.330;11.498;2023-02-04T04:31:38;21920.34;;;-147.39;70.07
3524;BME280;1776;53.330;11.498;2023-02-04T04:34:03;21869.53;;;-147.39;70.29
3524;BME280;1776;53.330;11.498;2023-02-04T04:36:28;21885.81;;;-147.39;70.41
3524;BME280;1776;53.330;11.498;2023-02-04T04:38:53;21847.19;;;-147.39;70.81
3524;BME280;1776;53.330;11.498;2023-02-04T04:41:19;21902.06;;;-147.39;70.94
3524;BME280;1776;53.330;11.498;2023-02-04T04:43:44;21861.41;;;-147.39;71.40
3524;BME280;1776;53.330;11.498;2023-02-04T04:46:09;21154.31;;;-147.39;71.11
3524;BME280;1776;53.330;11.498;2023-02-04T04:48:34;21804.53;;;-147.39;71.88
3524;BME280;1776;53.330;11.498;2023-02-04T04:51:00;21861.41;;;-147.39;72.09
3524;BME280;1776;53.330;11.498;2023-02-04T04:53:25;21837.03;;;-147.39;71.96
3524;BME280;1776;53.330;11.498;2023-02-04T04:55:50;21792.31;;;-147.39;71.99
3524;BME280;1776;53.330;11.498;2023-02-04T04:58:15;21788.25;;;-147.39;72.58
3524;BME280;1776;53.330;11.498;2023-02-04T05:00:41;21808.59;;;-147.39;72.35
3524;BME280;1776;53.330;11.498;2023-02-04T05:03:06;21786.22;;;-147.39;72.58
3524;BME280;1776;53.330;11.498;2023-02-04T05:05:31;21816.72;;;-147.39;72.56
3524;BME280;1776;53.330;11.498;2023-02-04T05:07:58;21743.56;;;-147.39;72.60
3524;BME280;1776;53.330;11.498;2023-02-04T05:10:23;21832.97;;;-147.39;72.46
3524;BME280;1776;53.330;11.498;2023-02-04T05:12:48;21755.75;;;-147.39;72.51
3524;BME280;1776;53.330;11.498;2023-02-04T05:15:13;21800.47;;;-147.39;72.23
3524;BME280;1776;53.330;11.498;2023-02-04T05:17:39;21800.47;;;-147.39;72.16
3524;BME280;1776;53.330;11.498;2023-02-04T05:20:04;21835.00;;;-147.39;71.97
3524;BME280;1776;53.330;11.498;2023-02-04T05:22:29;21782.16;;;-147.39;72.20
3524;BME280;1776;53.330;11.498;2023-02-04T05:24:55;21824.84;;;-147.39;71.75
3524;BME280;1776;53.330;11.498;2023-02-04T05:27:20;21682.59;;;-147.39;71.80
3524;BME280;1776;53.330;11.498;2023-02-04T05:29:45;21806.56;;;-147.39;72.06
3524;BME280;1776;53.330;11.498;2023-02-04T05:32:11;21883.78;;;-147.39;71.92
3524;BME280;1776;53.330;11.498;2023-02-04T05:34:36;21851.25;;;-147.39;71.95
3524;BME280;1776;53.330;11.498;2023-02-04T05:37:01;21794.38;;;-147.39;71.89
3524;BME280;1776;53.330;11.498;2023-02-04T05:39:27;21796.41;;;-147.39;71.92
3524;BME280;1776;53.330;11.498;2023-02-04T05:41:52;21843.13;;;-147.39;71.42
3524;BME280;1776;53.330;11.498;2023-02-04T05:44:17;21830.94;;;-147.39;71.58
3524;BME280;1776;53.330;11.498;2023-02-04T05:46:42;21820.78;;;-147.39;71.86
3524;BME280;1776;53.330;11.498;2023-02-04T05:49:08;21820.78;;;-147.39;71.53
3524;BME280;1776;53.330;11.498;2023-02-04T05:51:33;21865.47;;;-147.39;71.61
3524;BME280;1776;53.330;11.498;2023-02-04T05:53:58;21837.03;;;-147.39;71.37
3524;BME280;1776;53.330;11.498;2023-02-04T05:56:24;21855.31;;;-147.39;71.59
3524;BME280;1776;53.330;11.498;2023-02-04T05:58:49;21814.69;;;-147.39;71.76
3524;BME280;1776;53.330;11.498;2023-02-04T06:01:15;21828.91;;;-147.39;71.59
3524;BME280;1776;53.330;11.498;2023-02-04T06:03:40;21822.81;;;-147.39;71.59
3524;BME280;1776;53.330;11.498;2023-02-04T06:06:05;21841.09;;;-147.39;71.82
3524;BME280;1776;53.330;11.498;2023-02-04T06:08:31;21853.28;;;-147.39;71.71
3524;BME280;1776;53.330;11.498;2023-02-04T06:10:56;21837.03;;;-147.39;71.50
3524;BME280;1776;53.330;11.498;2023-02-04T06:13:21;21802.50;;;-147.39;71.63
3524;BME280;1776;53.330;11.498;2023-02-04T06:15:47;21845.16;;;-147.39;71.80
3524;BME280;1776;53.330;11.498;2023-02-04T06:18:12;21826.88;;;-147.39;72.01
3524;BME280;1776;53.330;11.498;2023-02-04T06:20:38;21820.78;;;-147.39;72.43
3524;BME280;1776;53.330;11.498;2023-02-04T06:23:03;21792.31;;;-147.39;72.66
3524;BME280;1776;53.330;11.498;2023-02-04T06:25:28;21816.72;;;-147.39;72.79
3524;BME280;1776;53.330;11.498;2023-02-04T06:27:54;21812.66;;;-147.39;72.92
3524;BME280;1776;53.330;11.498;2023-02-04T06:30:19;21804.53;;;-147.39;72.92
3524;BME280;1776;53.330;11.498;2023-02-04T06:32:44;21788.25;;;-147.39;72.97
3524;BME280;1776;53.330;11.498;2023-02-04T06:35:09;21835.00;;;-147.39;72.64
3524;BME280;1776;53.330;11.498;2023-02-04T06:37:37;21786.22;;;-147.39;72.56
3524;BME280;1776;53.330;11.498;2023-02-04T06:40:02;21786.22;;;-147.39;72.66
3524;BME280;1776;53.330;11.498;2023-02-04T06:42:29;21830.94;;;-147.39;72.44
3524;BME280;1776;53.330;11.498;2023-02-04T06:44:54;21814.69;;;-147.39;72.33
3524;BME280;1776;53.330;11.498;2023-02-04T06:47:19;21786.22;;;-147.39;72.20
3524;BME280;1776;53.330;11.498;2023-02-04T06:49:44;21857.34;;;-147.39;72.26
3524;BME280;1776;53.330;11.498;2023-02-04T06:52:10;21824.84;;;-147.39;72.13
3524;BME280;1776;53.330;11.498;2023-02-04T06:54:36;21887.84;;;-147.39;72.31
3524;BME280;1776;53.330;11.498;2023-02-04T06:57:02;21816.72;;;-147.39;72.19
3524;BME280;1776;53.330;11.498;2023-02-04T06:59:37;21802.50;;;-147.39;72.07
3524;BME280;1776;53.330;11.498;2023-02-04T07:02:04;21849.22;;;-147.39;72.12
3524;BME280;1776;53.330;11.498;2023-02-04T07:04:29;21828.91;;;-147.39;71.97
3524;BME280;1776;53.330;11.498;2023-02-04T07:06:55;21808.59;;;-147.39;71.97
3524;BME280;1776;53.330;11.498;2023-02-04T07:09:20;21814.69;;;-147.39;72.30
3524;BME280;1776;53.330;11.498;2023-02-04T07:11:45;21910.19;;;-147.39;72.12
3524;BME280;1776;53.330;11.498;2023-02-04T07:14:11;21812.66;;;-147.39;71.95
3524;BME280;1776;53.330;11.498;2023-02-04T07:16:36;21845.16;;;-147.39;71.99
3524;BME280;1776;53.330;11.498;2023-02-04T07:19:02;21855.31;;;-147.39;71.88
3524;BME280;1776;53.330;11.498;2023-02-04T07:21:28;21839.06;;;-147.39;71.85
3524;BME280;1776;53.330;11.498;2023-02-04T07:23:53;21837.03;;;-147.39;72.23
3524;BME280;1776;53.330;11.498;2023-02-04T07:26:18;21830.94;;;-147.39;72.01
3524;BME280;1776;53.330;11.498;2023-02-04T07:28:43;21900.03;;;-147.39;72.24
3524;BME280;1776;53.330;11.498;2023-02-04T07:31:09;21820.78;;;-147.39;71.95
3524;BME280;1776;53.330;11.498;2023-02-04T07:33:34;21857.34;;;-147.39;71.72
3524;BME280;1776;53.330;11.498;2023-02-04T07:36:00;21889.88;;;-147.39;72.33
3524;BME280;1776;53.330;11.498;2023-02-04T07:38:25;21832.97;;;-147.39;72.06
3524;BME280;1776;53.330;11.498;2023-02-04T07:40:50;21839.06;;;-147.39;71.97
3524;BME280;1776;53.330;11.498;2023-02-04T07:43:15;21828.91;;;-147.39;71.88
3524;BME280;1776;53.330;11.498;2023-02-04T07:45:41;21830.94;;;-147.39;72.20
3524;BME280;1776;53.330;11.498;2023-02-04T07:48:06;21822.81;;;-147.39;72.26
3524;BME280;1776;53.330;11.498;2023-02-04T07:50:32;21820.78;;;-147.39;72.09
3524;BME280;1776;53.330;11.498;2023-02-04T07:52:57;21847.19;;;-147.39;72.07
3524;BME280;1776;53.330;11.498;2023-02-04T07:55:22;21879.72;;;-147.39;71.90
3524;BME280;1776;53.330;11.498;2023-02-04T07:57:48;21839.06;;;-147.39;71.80
3524;BME280;1776;53.330;11.498;2023-02-04T08:00:13;21837.03;;;-147.39;72.32
3524;BME280;1776;53.330;11.498;2023-02-04T08:02:40;21912.22;;;-147.39;72.30
3524;BME280;1776;53.330;11.498;2023-02-04T08:05:06;21837.03;;;-147.39;71.97
3524;BME280;1776;53.330;11.498;2023-02-04T08:07:32;21849.22;;;-147.39;71.69
3524;BME280;1776;53.330;11.498;2023-02-04T08:09:57;21835.00;;;-147.39;71.57
3524;BME280;1776;53.330;11.498;2023-02-04T08:12:22;21859.38;;;-147.39;71.54
3524;BME280;1776;53.330;11.498;2023-02-04T08:14:48;21865.47;;;-147.39;71.57
3524;BME280;1776;53.330;11.498;2023-02-04T08:17:13;22042.28;;;-147.39;71.39
3524;BME280;1776;53.330;11.498;2023-02-04T08:19:38;21837.03;;;-147.39;71.74
3524;BME280;1776;53.330;11.498;2023-02-04T08:22:03;21924.41;;;-147.39;71.49
3524;BME280;1776;53.330;11.498;2023-02-04T08:24:29;21839.06;;;-147.39;71.48
3524;BME280;1776;53.330;11.498;2023-02-04T08:26:54;21918.31;;;-147.39;70.83
3524;BME280;1776;53.330;11.498;2023-02-04T08:29:19;21900.03;;;-147.39;70.79
3524;BME280;1776;53.330;11.498;2023-02-04T08:31:45;21918.31;;;-147.39;70.13
3524;BME280;1776;53.330;11.498;2023-02-04T08:34:12;21906.13;;;-147.39;70.13
3524;BME280;1776;53.330;11.498;2023-02-04T08:36:37;21942.69;;;-147.39;69.37
3524;BME280;1776;53.330;11.498;2023-02-04T08:39:02;21995.53;;;-147.39;68.89
3524;BME280;1776;53.330;11.498;2023-02-04T08:41:28;21999.59;;;-147.39;68.79
3524;BME280;1776;53.330;11.498;2023-02-04T08:43:53;21997.56;;;-147.39;68.15
3524;BME280;1776;53.330;11.498;2023-02-04T08:46:19;22034.16;;;-147.39;67.37
3524;BME280;1776;53.330;11.498;2023-02-04T08:48:44;22150.00;;;-147.39;66.51
3524;BME280;1776;53.330;11.498;2023-02-04T08:51:10;22578.81;;;-147.39;60.33
3524;BME280;1776;53.330;11.498;2023-02-04T08:53:35;23623.66;;;-147.39;52.16
3524;BME280;1776;53.330;11.498;2023-02-04T08:56:01;24451.19;;;-147.39;44.29
3524;BME280;1776;53.330;11.498;2023-02-04T08:58:26;24638.25;;;-147.39;43.34
3524;BME280;1776;53.330;11.498;2023-02-04T09:00:52;24805.00;;;-147.39;41.83
3524;BME280;1776;53.330;11.498;2023-02-04T09:03:17;24727.75;;;-147.39;43.69
3524;BME280;1776;53.330;11.498;2023-02-04T09:05:42;24776.53;;;-147.39;42.99
3524;BME280;1776;53.330;11.498;2023-02-04T09:08:08;24977.88;;;-147.39;40.98
3524;BME280;1776;53.330;11.498;2023-02-04T09:10:33;25034.81;;;-147.39;40.44
3524;BME280;1776;53.330;11.498;2023-02-04T09:12:58;25230.06;;;-147.39;39.44
3524;BME280;1776;53.330;11.498;2023-02-04T09:15:23;25459.91;;;-147.39;38.10
3524;BME280;1776;53.330;11.498;2023-02-04T09:17:50;25992.84;;;-147.39;34.14
3524;BME280;1776;53.330;11.498;2023-02-04T09:20:17;25720.25;;;-147.39;35.57
3524;BME280;1776;53.330;11.498;2023-02-04T09:22:42;25374.47;;;-147.39;38.33
3524;BME280;1776;53.330;11.498;2023-02-04T09:25:08;25209.72;;;-147.39;39.99
3524;BME280;1776;53.330;11.498;2023-02-04T09:27:33;25030.75;;;-147.39;42.54
3524;BME280;1776;53.330;11.498;2023-02-04T09:29:58;24782.66;;;-147.39;45.18
3524;BME280;1776;53.330;11.498;2023-02-04T09:32:24;24530.47;;;-147.39;48.13
3524;BME280;1776;53.330;11.498;2023-02-04T09:34:49;24382.03;;;-147.39;50.79
3524;BME280;1776;53.330;11.498;2023-02-04T09:37:14;24233.59;;;-147.39;51.36
3524;BME280;1776;53.330;11.498;2023-02-04T09:39:39;24144.13;;;-147.39;54.08
3524;BME280;1776;53.330;11.498;2023-02-04T09:42:05;24099.41;;;-147.39;55.93
3524;BME280;1776;53.330;11.498;2023-02-04T09:44:30;23887.94;;;-147.39;57.53
3524;BME280;1776;53.330;11.498;2023-02-04T09:46:58;23936.75;;;-147.39;56.29
3524;BME280;1776;53.330;11.498;2023-02-04T09:49:26;24058.75;;;-147.39;55.45
3524;BME280;1776;53.330;11.498;2023-02-04T09:51:53;24007.91;;;-147.39;55.86
3524;BME280;1776;53.330;11.498;2023-02-04T09:54:21;23906.25;;;-147.39;57.35
3524;BME280;1776;53.330;11.498;2023-02-04T09:56:48;23841.19;;;-147.39;58.35
3524;BME280;1776;53.330;11.498;2023-02-04T09:59:19;23745.63;;;-147.39;59.70
3524;BME280;1776;53.330;11.498;2023-02-04T10:02:10;23702.94;;;-147.39;60.19
3524;BME280;1776;53.330;11.498;2023-02-04T10:04:38;23761.91;;;-147.39;60.28
3524;BME280;1776;53.330;11.498;2023-02-04T10:07:09;23735.47;;;-147.39;60.36
3524;BME280;1776;53.330;11.498;2023-02-04T10:09:36;23792.41;;;-147.39;60.22
3524;BME280;1776;53.330;11.498;2023-02-04T10:12:02;23873.72;;;-147.39;58.28
3524;BME280;1776;53.330;11.498;2023-02-04T10:14:28;23867.63;;;-147.39;57.15
3524;BME280;1776;53.330;11.498;2023-02-04T10:16:55;24003.84;;;-147.39;56.21
3524;BME280;1776;53.330;11.498;2023-02-04T10:19:21;23924.56;;;-147.39;55.85
3524;BME280;1776;53.330;11.498;2023-02-04T10:21:47;23890.00;;;-147.39;56.11
3524;BME280;1776;53.330;11.498;2023-02-04T10:24:15;23916.41;;;-147.39;56.02
3524;BME280;1776;53.330;11.498;2023-02-04T10:26:41;23957.09;;;-147.39;55.37
3524;BME280;1776;53.330;11.498;2023-02-04T10:29:13;23928.63;;;-147.39;56.95
3524;BME280;1776;53.330;11.498;2023-02-04T10:31:41;23924.56;;;-147.39;55.88
3524;BME280;1776;53.330;11.498;2023-02-04T10:34:10;23906.25;;;-147.39;56.25
3524;BME280;1776;53.330;11.498;2023-02-04T10:36:37;23936.75;;;-147.39;55.50
3524;BME280;1776;53.330;11.498;2023-02-04T10:39:14;24009.94;;;-147.39;54.06
3524;BME280;1776;53.330;11.498;2023-02-04T10:44:13;23965.22;;;-147.39;52.60
3524;BME280;1776;53.330;11.498;2023-02-04T10:46:39;24034.34;;;-147.39;53.65
3524;BME280;1776;53.330;11.498;2023-02-04T10:49:12;23936.75;;;-147.39;54.23
3524;BME280;1776;53.330;11.498;2023-02-04T10:51:40;24003.84;;;-147.39;55.11
3524;BME280;1776;53.330;11.498;2023-02-04T10:54:11;23950.97;;;-147.39;55.05
3524;BME280;1776;53.330;11.498;2023-02-04T10:59:29;23967.25;;;-147.39;54.11
3524;BME280;1776;53.330;11.498;2023-02-04T11:01:56;24007.91;;;-147.39;53.63
3524;BME280;1776;53.330;11.498;2023-02-04T11:04:23;24018.06;;;-147.39;53.41
3524;BME280;1776;53.330;11.498;2023-02-04T11:06:49;24007.91;;;-147.39;53.89
3524;BME280;1776;53.330;11.498;2023-02-04T11:09:17;24072.97;;;-147.39;53.21
3524;BME280;1776;53.330;11.498;2023-02-04T11:11:47;24075.00;;;-147.39;51.97
3524;BME280;1776;53.330;11.498;2023-02-04T11:14:27;24091.28;;;-147.39;52.36
3524;BME280;1776;53.330;11.498;2023-02-04T11:16:55;24162.44;;;-147.39;51.04
3524;BME280;1776;53.330;11.498;2023-02-04T11:19:37;24142.09;;;-147.39;50.81
3524;BME280;1776;53.330;11.498;2023-02-04T11:22:35;24127.88;;;-147.39;51.37
3524;BME280;1776;53.330;11.498;2023-02-04T11:25:00;24158.38;;;-147.39;50.59
3524;BME280;1776;53.330;11.498;2023-02-04T11:27:38;24170.56;;;-147.39;50.44
3524;BME280;1776;53.330;11.498;2023-02-04T11:30:19;24213.28;;;-147.39;50.83
3524;BME280;1776;53.330;11.498;2023-02-04T11:32:55;24239.72;;;-147.39;49.09
3524;BME280;1776;53.330;11.498;2023-02-04T11:35:27;24241.75;;;-147.39;48.53
3524;BME280;1776;53.330;11.498;2023-02-04T11:37:53;24253.94;;;-147.39;49.54
3524;BME280;1776;53.330;11.498;2023-02-04T11:40:25;24298.66;;;-147.39;48.37
3524;BME280;1776;53.330;11.498;2023-02-04T11:43:12;24274.28;;;-147.39;48.03
3524;BME280;1776;53.330;11.498;2023-02-04T11:45:39;24270.22;;;-147.39;48.55
3524;BME280;1776;53.330;11.498;2023-02-04T11:48:15;24290.53;;;-147.39;48.49
3524;BME280;1776;53.330;11.498;2023-02-04T11:50:41;24235.63;;;-147.39;48.74
3524;BME280;1776;53.330;11.498;2023-02-04T11:53:10;24233.59;;;-147.39;50.05
3524;BME280;1776;53.330;11.498;2023-02-04T11:55:42;24241.75;;;-147.39;50.14
3524;BME280;1776;53.330;11.498;2023-02-04T11:58:14;24247.84;;;-147.39;50.32
3524;BME280;1776;53.330;11.498;2023-02-04T12:00:40;24319.00;;;-147.39;48.23
3524;BME280;1776;53.330;11.498;2023-02-04T12:05:47;24323.06;;;-147.39;48.46
3524;BME280;1776;53.330;11.498;2023-02-04T12:10:59;24445.06;;;-147.39;47.59
3524;BME280;1776;53.330;11.498;2023-02-04T12:13:25;24445.06;;;-147.39;47.42
3524;BME280;1776;53.330;11.498;2023-02-04T12:15:58;24475.59;;;-147.39;46.59
3524;BME280;1776;53.330;11.498;2023-02-04T12:18:24;24485.75;;;-147.39;46.94
3524;BME280;1776;53.330;11.498;2023-02-04T12:20:52;24487.78;;;-147.39;45.55
3524;BME280;1776;53.330;11.498;2023-02-04T12:23:17;24508.13;;;-147.39;44.89
3524;BME280;1776;53.330;11.498;2023-02-04T12:25:42;24459.31;;;-147.39;45.53
3524;BME280;1776;53.330;11.498;2023-02-04T12:28:07;24414.56;;;-147.39;46.14
3524;BME280;1776;53.330;11.498;2023-02-04T12:30:33;24396.28;;;-147.39;46.42
3524;BME280;1776;53.330;11.498;2023-02-04T12:32:58;24369.84;;;-147.39;46.83
3524;BME280;1776;53.330;11.498;2023-02-04T12:35:23;24373.91;;;-147.39;48.00
3524;BME280;1776;53.330;11.498;2023-02-04T12:37:49;24410.50;;;-147.39;46.96
3524;BME280;1776;53.330;11.498;2023-02-04T12:40:18;24422.72;;;-147.39;47.91
3524;BME280;1776;53.330;11.498;2023-02-04T12:42:44;24418.66;;;-147.39;47.76
3524;BME280;1776;53.330;11.498;2023-02-04T12:45:11;24463.38;;;-147.39;47.98
3524;BME280;1776;53.330;11.498;2023-02-04T12:47:37;24520.31;;;-147.39;46.40
3524;BME280;1776;53.330;11.498;2023-02-04T12:50:03;24522.34;;;-147.39;45.26
3524;BME280;1776;53.330;11.498;2023-02-04T12:52:29;24526.41;;;-147.39;45.04
3524;BME280;1776;53.330;11.498;2023-02-04T12:54:54;24554.88;;;-147.39;45.25
3524;BME280;1776;53.330;11.498;2023-02-04T12:57:19;24497.94;;;-147.39;43.94